createdAt,value
2023-04-30T00:00:02.771Z,178.41
2023-04-30T00:01:02.775Z,180.64
2023-04-30T00:02:02.830Z,179.01
2023-04-30T00:03:02.892Z,182.78
2023-04-30T00:04:02.883Z,182.04
2023-04-30T00:05:02.902Z,177.57
2023-04-30T00:06:02.959Z,172.54
2023-04-30T00:07:02.973Z,170.85
2023-04-30T00:08:03.009Z,172.91
2023-04-30T00:09:03.050Z,170.74
2023-04-30T00:10:03.069Z,173.18
2023-04-30T00:11:03.097Z,172.32
2023-04-30T00:12:03.136Z,171.73
2023-04-30T00:13:03.163Z,171.61
2023-04-30T00:14:03.213Z,172.34
2023-04-30T00:15:03.241Z,176.03
2023-04-30T00:16:03.287Z,175.78
2023-04-30T00:17:03.328Z,176.22
2023-04-30T00:18:03.418Z,175.36
2023-04-30T00:19:03.424Z,175.71
2023-04-30T00:20:03.433Z,169.69
2023-04-30T00:21:03.469Z,171.59
2023-04-30T00:22:03.525Z,169.96
2023-04-30T00:23:03.580Z,166.36
2023-04-30T00:24:03.617Z,168.48
2023-04-30T00:25:03.624Z,168.04
2023-04-30T00:26:03.652Z,170.21
2023-04-30T00:27:03.708Z,168.12
2023-04-30T00:28:03.761Z,174.06
2023-04-30T00:29:03.774Z,172.37
2023-04-30T00:30:03.815Z,175.18
2023-04-30T00:31:03.848Z,175.14
2023-04-30T00:32:03.950Z,168.98
2023-04-30T00:33:03.974Z,171.59
2023-04-30T00:34:03.906Z,171.41
2023-04-30T00:35:03.994Z,172.46
2023-04-30T00:36:04.028Z,169.38
2023-04-30T00:37:04.066Z,171.85
2023-04-30T00:38:04.122Z,174.03
2023-04-30T00:39:04.167Z,172.90
2023-04-30T00:40:04.208Z,174.69
2023-04-30T00:41:04.230Z,171.48
2023-04-30T00:42:04.237Z,171.08
2023-04-30T00:43:04.303Z,172.35
2023-04-30T00:44:04.349Z,172.00
2023-04-30T00:45:04.386Z,172.80
2023-04-30T00:46:04.430Z,174.49
2023-04-30T00:47:04.431Z,171.20
2023-04-30T00:48:04.517Z,175.19
2023-04-30T00:49:04.528Z,171.52
2023-04-30T00:50:04.606Z,171.11
2023-04-30T00:51:04.624Z,172.38
2023-04-30T00:52:04.676Z,168.29
2023-04-30T00:53:04.726Z,166.50
2023-04-30T00:54:04.755Z,165.84
2023-04-30T00:55:04.783Z,166.86
2023-04-30T00:56:04.835Z,166.08
2023-04-30T00:57:04.873Z,168.76
2023-04-30T00:58:04.912Z,166.20
2023-04-30T00:59:04.940Z,166.24
2023-04-30T01:00:04.978Z,159.85
2023-04-30T01:01:05.090Z,160.13
2023-04-30T01:02:05.073Z,157.46
2023-04-30T01:03:05.174Z,159.37
2023-04-30T01:04:05.153Z,161.46
2023-04-30T01:05:05.177Z,157.45
2023-04-30T01:06:05.217Z,162.25
2023-04-30T01:07:05.211Z,156.87
2023-04-30T01:08:05.275Z,162.12
2023-04-30T01:09:05.291Z,158.41
2023-04-30T01:10:05.356Z,158.41
2023-04-30T01:11:05.370Z,159.81
2023-04-30T01:12:05.435Z,159.83
2023-04-30T01:13:05.445Z,162.34
2023-04-30T01:14:05.483Z,163.01
2023-04-30T01:15:05.538Z,159.76
2023-04-30T01:16:05.598Z,160.20
2023-04-30T01:17:05.621Z,161.12
2023-04-30T01:18:05.690Z,162.33
2023-04-30T01:19:05.709Z,164.24
2023-04-30T01:20:05.733Z,166.32
2023-04-30T01:21:05.783Z,167.72
2023-04-30T01:22:05.820Z,173.61
2023-04-30T01:23:05.854Z,174.82
2023-04-30T01:24:05.877Z,174.31
2023-04-30T01:25:05.932Z,172.88
2023-04-30T01:26:05.962Z,173.82
2023-04-30T01:27:06.008Z,173.67
2023-04-30T01:28:06.053Z,172.68
2023-04-30T01:29:06.109Z,175.42
2023-04-30T01:30:06.129Z,175.41
2023-04-30T01:31:06.199Z,180.12
2023-04-30T01:32:06.216Z,182.39
2023-04-30T01:33:06.309Z,178.29
2023-04-30T01:34:06.245Z,178.41
2023-04-30T01:35:06.284Z,176.77
2023-04-30T01:36:06.292Z,174.32
2023-04-30T01:37:06.332Z,175.67
2023-04-30T01:38:06.306Z,176.12
2023-04-30T01:39:06.326Z,174.09
2023-04-30T01:40:06.362Z,172.88
2023-04-30T01:41:06.433Z,170.32
2023-04-30T01:42:06.475Z,172.51
2023-04-30T01:43:06.535Z,177.66
2023-04-30T01:44:06.552Z,175.26
2023-04-30T01:45:06.577Z,182.12
2023-04-30T01:46:06.673Z,184.52
2023-04-30T01:47:06.669Z,181.43
2023-04-30T01:48:06.733Z,183.70
2023-04-30T01:49:06.762Z,182.44
2023-04-30T01:50:06.804Z,184.86
2023-04-30T01:51:06.828Z,180.07
2023-04-30T01:52:06.869Z,181.61
2023-04-30T01:53:06.883Z,183.16
2023-04-30T01:54:06.908Z,184.00
2023-04-30T01:55:06.958Z,184.81
2023-04-30T01:56:06.996Z,188.88
2023-04-30T01:57:07.027Z,193.00
2023-04-30T01:58:07.032Z,197.99
2023-04-30T01:59:07.056Z,200.37
2023-04-30T02:00:07.068Z,203.71
2023-04-30T02:01:07.132Z,208.38
2023-04-30T02:02:07.167Z,207.81
2023-04-30T02:03:07.242Z,206.34
2023-04-30T02:04:07.324Z,202.46
2023-04-30T02:05:07.265Z,202.15
2023-04-30T02:06:07.380Z,203.32
2023-04-30T02:07:07.333Z,197.80
2023-04-30T02:08:07.365Z,195.53
2023-04-30T02:09:07.429Z,193.13
2023-04-30T02:10:07.461Z,194.11
2023-04-30T02:11:07.449Z,197.12
2023-04-30T02:12:07.485Z,193.45
2023-04-30T02:13:07.526Z,195.76
2023-04-30T02:14:07.573Z,191.48
2023-04-30T02:15:07.650Z,187.15
2023-04-30T02:16:07.725Z,187.28
2023-04-30T02:17:07.654Z,186.19
2023-04-30T02:18:07.692Z,183.44
2023-04-30T02:19:07.679Z,186.16
2023-04-30T02:20:07.714Z,185.03
2023-04-30T02:21:07.741Z,187.74
2023-04-30T02:22:07.744Z,183.43
2023-04-30T02:23:07.778Z,189.02
2023-04-30T02:24:07.818Z,188.24
2023-04-30T02:25:07.837Z,187.37
2023-04-30T02:26:07.876Z,189.04
2023-04-30T02:27:07.868Z,189.39
2023-04-30T02:28:07.887Z,190.75
2023-04-30T02:29:07.937Z,189.73
2023-04-30T02:30:07.985Z,189.53
2023-04-30T02:31:08.042Z,186.77
2023-04-30T02:32:08.029Z,187.69
2023-04-30T02:33:08.103Z,183.88
2023-04-30T02:34:08.085Z,183.53
2023-04-30T02:35:08.113Z,180.82
2023-04-30T02:36:08.134Z,183.34
2023-04-30T02:37:08.152Z,183.13
2023-04-30T02:38:08.163Z,184.77
2023-04-30T02:39:08.179Z,181.30
2023-04-30T02:40:08.184Z,185.11
2023-04-30T02:41:08.222Z,182.16
2023-04-30T02:42:08.253Z,187.70
2023-04-30T02:43:08.258Z,188.90
2023-04-30T02:44:08.290Z,192.86
2023-04-30T02:45:08.280Z,195.35
2023-04-30T02:46:08.393Z,188.80
2023-04-30T02:47:08.351Z,190.88
2023-04-30T02:48:08.363Z,192.42
2023-04-30T02:49:08.357Z,193.32
2023-04-30T02:50:08.343Z,193.52
2023-04-30T02:51:08.386Z,189.85
2023-04-30T02:52:08.380Z,186.92
2023-04-30T02:53:08.379Z,190.20
2023-04-30T02:54:08.398Z,188.89
2023-04-30T02:55:08.424Z,193.18
2023-04-30T02:56:08.486Z,195.56
2023-04-30T02:57:08.489Z,196.04
2023-04-30T02:58:08.473Z,200.06
2023-04-30T02:59:08.491Z,197.74
2023-04-30T03:00:08.526Z,197.05
2023-04-30T03:01:08.609Z,193.66
2023-04-30T03:02:08.568Z,191.60
2023-04-30T03:03:08.660Z,187.44
2023-04-30T03:04:08.588Z,189.97
2023-04-30T03:05:08.593Z,189.12
2023-04-30T03:06:08.660Z,188.92
2023-04-30T03:07:08.694Z,182.89
2023-04-30T03:08:08.721Z,183.36
2023-04-30T03:09:08.766Z,183.91
2023-04-30T03:10:08.772Z,182.78
2023-04-30T03:11:08.828Z,178.25
2023-04-30T03:12:08.812Z,179.13
2023-04-30T03:13:08.844Z,179.18
2023-04-30T03:14:08.901Z,178.46
2023-04-30T03:15:08.872Z,179.91
2023-04-30T03:16:08.942Z,176.72
2023-04-30T03:17:08.941Z,177.52
2023-04-30T03:18:09.007Z,177.54
2023-04-30T03:19:08.976Z,172.68
2023-04-30T03:20:08.995Z,170.90
2023-04-30T03:21:09.014Z,173.57
2023-04-30T03:22:09.049Z,170.25
2023-04-30T03:23:09.040Z,173.08
2023-04-30T03:24:09.094Z,170.30
2023-04-30T03:25:09.092Z,172.71
2023-04-30T03:26:09.285Z,174.13
2023-04-30T03:27:09.131Z,171.19
2023-04-30T03:28:09.180Z,175.51
2023-04-30T03:29:09.169Z,173.32
2023-04-30T03:30:09.186Z,171.59
2023-04-30T03:31:09.264Z,175.41
2023-04-30T03:32:09.253Z,170.90
2023-04-30T03:33:09.318Z,170.85
2023-04-30T03:34:09.292Z,172.02
2023-04-30T03:35:09.337Z,170.35
2023-04-30T03:36:09.387Z,174.71
2023-04-30T03:37:09.420Z,174.34
2023-04-30T03:38:09.447Z,174.93
2023-04-30T03:39:09.448Z,173.69
2023-04-30T03:40:09.480Z,171.52
2023-04-30T03:41:09.525Z,172.34
2023-04-30T03:42:09.708Z,167.05
2023-04-30T03:43:09.597Z,164.34
2023-04-30T03:44:09.601Z,166.21
2023-04-30T03:45:09.612Z,164.38
2023-04-30T03:46:09.659Z,167.29
2023-04-30T03:47:09.681Z,167.67
2023-04-30T03:48:09.707Z,166.47
2023-04-30T03:49:09.705Z,165.26
2023-04-30T03:50:09.725Z,163.60
2023-04-30T03:51:09.762Z,166.93
2023-04-30T03:52:09.771Z,169.77
2023-04-30T03:53:09.788Z,170.69
2023-04-30T03:54:09.800Z,166.68
2023-04-30T03:55:09.827Z,171.83
2023-04-30T03:56:09.876Z,172.36
2023-04-30T03:57:09.827Z,170.22
2023-04-30T03:58:09.840Z,169.05
2023-04-30T03:59:09.857Z,170.51
2023-04-30T04:00:09.852Z,172.67
2023-04-30T04:01:09.862Z,168.71
2023-04-30T04:02:10.002Z,169.87
2023-04-30T04:03:09.955Z,169.48
2023-04-30T04:04:09.986Z,173.54
2023-04-30T04:05:09.981Z,175.33
2023-04-30T04:06:10.019Z,176.16
2023-04-30T04:07:10.009Z,172.24
2023-04-30T04:08:10.068Z,168.35
2023-04-30T04:09:10.070Z,164.13
2023-04-30T04:10:10.071Z,167.37
2023-04-30T04:11:10.130Z,166.17
2023-04-30T04:12:10.130Z,167.08
2023-04-30T04:13:10.134Z,169.39
2023-04-30T04:14:10.138Z,172.61
2023-04-30T04:15:10.172Z,177.04
2023-04-30T04:16:10.267Z,181.40
2023-04-30T04:17:10.236Z,183.13
2023-04-30T04:18:10.475Z,175.94
2023-04-30T04:19:10.298Z,171.21
2023-04-30T04:20:12.608Z,170.74
2023-04-30T04:21:10.334Z,167.39
2023-04-30T04:22:10.323Z,157.93
2023-04-30T04:23:10.328Z,155.52
2023-04-30T04:24:10.307Z,153.56
2023-04-30T04:25:10.292Z,150.70
2023-04-30T04:26:10.303Z,149.81
2023-04-30T04:27:10.287Z,144.11
2023-04-30T04:28:10.294Z,143.38
2023-04-30T04:29:10.278Z,140.60
2023-04-30T04:30:10.275Z,143.37
2023-04-30T04:31:10.386Z,137.42
2023-04-30T04:32:10.266Z,134.72
2023-04-30T04:33:10.239Z,129.97
2023-04-30T04:34:10.246Z,128.83
2023-04-30T04:35:10.243Z,125.84
2023-04-30T04:36:10.222Z,123.05
2023-04-30T04:37:10.246Z,120.38
2023-04-30T04:38:10.219Z,117.57
2023-04-30T04:39:10.217Z,122.03
2023-04-30T04:40:10.192Z,121.69
2023-04-30T04:41:10.178Z,123.88
2023-04-30T04:42:10.185Z,126.18
2023-04-30T04:43:10.174Z,126.17
2023-04-30T04:44:10.165Z,124.55
2023-04-30T04:45:10.194Z,125.89
2023-04-30T04:46:11.672Z,122.78
2023-04-30T04:47:10.123Z,123.30
2023-04-30T04:48:10.181Z,123.04
2023-04-30T04:49:10.154Z,126.04
2023-04-30T04:50:10.118Z,123.90
2023-04-30T04:51:10.105Z,123.78
2023-04-30T04:52:10.099Z,122.56
2023-04-30T04:53:10.098Z,121.29
2023-04-30T04:54:10.097Z,123.29
2023-04-30T04:55:10.073Z,116.85
2023-04-30T04:56:10.101Z,117.97
2023-04-30T04:57:10.063Z,115.33
2023-04-30T04:58:10.080Z,118.90
2023-04-30T04:59:10.080Z,112.66
2023-04-30T05:00:10.059Z,110.11
2023-04-30T05:01:10.036Z,103.84
2023-04-30T05:02:10.401Z,100.69
2023-04-30T05:03:10.172Z,98.66
2023-04-30T05:04:10.011Z,89.37
2023-04-30T05:05:10.002Z,93.71
2023-04-30T05:06:10.111Z,87.77
2023-04-30T05:07:10.013Z,81.53
2023-04-30T05:08:09.975Z,74.40
2023-04-30T05:09:09.981Z,72.74
2023-04-30T05:10:09.990Z,71.23
2023-04-30T05:11:09.954Z,65.49
2023-04-30T05:12:09.977Z,57.49
2023-04-30T05:13:09.945Z,55.08
2023-04-30T05:14:09.930Z,55.97
2023-04-30T05:15:09.940Z,56.61
2023-04-30T05:16:09.948Z,51.49
2023-04-30T05:17:09.924Z,51.81
2023-04-30T05:18:10.071Z,48.61
2023-04-30T05:19:09.953Z,46.88
2023-04-30T05:20:09.905Z,44.33
2023-04-30T05:21:09.884Z,48.26
2023-04-30T05:22:09.880Z,47.00
2023-04-30T05:23:09.874Z,58.81
2023-04-30T05:24:09.859Z,49.55
2023-04-30T05:25:09.862Z,46.04
2023-04-30T05:26:09.871Z,38.75
2023-04-30T05:27:09.847Z,37.51
2023-04-30T05:28:09.849Z,45.42
2023-04-30T05:29:09.831Z,42.08
2023-04-30T05:30:09.829Z,43.92
2023-04-30T05:31:09.817Z,45.99
2023-04-30T05:32:09.866Z,40.85
2023-04-30T05:33:09.847Z,49.78
2023-04-30T05:34:09.885Z,51.79
2023-04-30T05:35:09.800Z,52.66
2023-04-30T05:36:09.776Z,55.66
2023-04-30T05:37:09.773Z,65.18
2023-04-30T05:38:09.754Z,59.35
2023-04-30T05:39:09.755Z,55.14
2023-04-30T05:40:09.760Z,56.60
2023-04-30T05:41:09.778Z,57.67
2023-04-30T05:42:09.747Z,62.59
2023-04-30T05:43:09.734Z,61.79
2023-04-30T05:44:09.740Z,61.59
2023-04-30T05:45:09.728Z,67.75
2023-04-30T05:46:09.834Z,64.15
2023-04-30T05:47:09.801Z,71.02
2023-04-30T05:48:09.865Z,69.32
2023-04-30T05:49:09.855Z,75.64
2023-04-30T05:50:09.889Z,68.35
2023-04-30T05:51:09.928Z,76.78
2023-04-30T05:52:09.932Z,76.53
2023-04-30T05:53:09.971Z,79.07
2023-04-30T05:54:10.013Z,82.11
2023-04-30T05:55:10.069Z,88.15
2023-04-30T05:56:10.105Z,88.69
2023-04-30T05:57:10.125Z,84.33
2023-04-30T05:58:10.169Z,82.33
2023-04-30T05:59:10.183Z,88.17
2023-04-30T06:00:10.220Z,88.86
2023-04-30T06:01:10.243Z,89.35
2023-04-30T06:02:10.291Z,85.99
2023-04-30T06:03:10.372Z,89.24
2023-04-30T06:04:10.328Z,83.67
2023-04-30T06:05:10.404Z,87.84
2023-04-30T06:06:10.415Z,86.17
2023-04-30T06:07:10.408Z,87.64
2023-04-30T06:08:10.448Z,89.88
2023-04-30T06:09:10.455Z,89.13
2023-04-30T06:10:10.498Z,93.81
2023-04-30T06:11:10.558Z,93.06
2023-04-30T06:12:10.617Z,96.17
2023-04-30T06:13:10.633Z,101.01
2023-04-30T06:14:10.679Z,102.61
2023-04-30T06:15:10.733Z,102.54
2023-04-30T06:16:10.741Z,104.57
2023-04-30T06:17:10.795Z,102.25
2023-04-30T06:18:10.823Z,113.91
2023-04-30T06:19:10.921Z,104.29
2023-04-30T06:20:10.867Z,104.73
2023-04-30T06:21:10.917Z,108.44
2023-04-30T06:22:10.933Z,106.19
2023-04-30T06:23:10.969Z,110.13
2023-04-30T06:24:11.004Z,111.54
2023-04-30T06:25:11.051Z,120.95
2023-04-30T06:26:11.066Z,110.69
2023-04-30T06:27:11.112Z,116.06
2023-04-30T06:28:11.148Z,119.53
2023-04-30T06:29:11.210Z,120.32
2023-04-30T06:30:11.261Z,119.88
2023-04-30T06:31:11.334Z,115.46
2023-04-30T06:32:11.331Z,125.29
2023-04-30T06:33:11.361Z,129.55
2023-04-30T06:34:11.414Z,131.63
2023-04-30T06:35:11.446Z,128.63
2023-04-30T06:36:11.497Z,133.09
2023-04-30T06:37:11.549Z,138.34
2023-04-30T06:38:11.615Z,134.13
2023-04-30T06:39:11.650Z,130.56
2023-04-30T06:40:11.773Z,127.84
2023-04-30T06:41:11.738Z,135.09
2023-04-30T06:42:11.788Z,137.22
2023-04-30T06:43:11.787Z,141.30
2023-04-30T06:44:11.821Z,139.28
2023-04-30T06:45:11.818Z,137.28
2023-04-30T06:46:11.928Z,135.42
2023-04-30T06:47:11.908Z,127.98
2023-04-30T06:48:11.942Z,139.11
2023-04-30T06:49:12.016Z,143.05
2023-04-30T06:50:12.035Z,147.23
2023-04-30T06:51:12.081Z,147.61
2023-04-30T06:52:12.100Z,146.53
2023-04-30T06:53:12.091Z,157.73
2023-04-30T06:54:12.179Z,151.55
2023-04-30T06:55:12.185Z,150.94
2023-04-30T06:56:12.226Z,153.83
2023-04-30T06:57:12.287Z,151.33
2023-04-30T06:58:12.318Z,147.90
2023-04-30T06:59:12.365Z,147.96
2023-04-30T07:00:12.374Z,157.57
2023-04-30T07:01:12.484Z,159.09
2023-04-30T07:02:12.599Z,159.29
2023-04-30T07:03:12.533Z,159.87
2023-04-30T07:04:12.490Z,160.33
2023-04-30T07:05:12.507Z,159.14
2023-04-30T07:06:12.556Z,164.79
2023-04-30T07:07:12.511Z,160.41
2023-04-30T07:08:12.518Z,158.82
2023-04-30T07:09:12.572Z,164.90
2023-04-30T07:10:12.625Z,167.38
2023-04-30T07:11:12.660Z,171.01
2023-04-30T07:12:12.712Z,166.55
2023-04-30T07:13:12.797Z,161.64
2023-04-30T07:14:12.806Z,165.75
2023-04-30T07:15:12.868Z,164.67
2023-04-30T07:16:12.993Z,170.31
2023-04-30T07:17:12.940Z,165.73
2023-04-30T07:18:12.977Z,166.29
2023-04-30T07:19:12.972Z,164.69
2023-04-30T07:20:13.018Z,171.03
2023-04-30T07:21:13.055Z,167.70
2023-04-30T07:22:13.077Z,173.23
2023-04-30T07:23:13.092Z,176.16
2023-04-30T07:24:13.104Z,177.08
2023-04-30T07:25:13.114Z,179.60
2023-04-30T07:26:13.133Z,182.40
2023-04-30T07:27:13.130Z,182.33
2023-04-30T07:28:13.210Z,186.03
2023-04-30T07:29:13.230Z,185.37
2023-04-30T07:30:13.226Z,182.97
2023-04-30T07:31:13.302Z,184.07
2023-04-30T07:32:13.309Z,185.26
2023-04-30T07:33:13.300Z,181.95
2023-04-30T07:34:13.356Z,186.65
2023-04-30T07:35:13.315Z,184.81
2023-04-30T07:36:13.344Z,184.68
2023-04-30T07:37:13.384Z,187.31
2023-04-30T07:38:13.424Z,186.35
2023-04-30T07:39:13.485Z,185.88
2023-04-30T07:40:19.281Z,180.14
2023-04-30T07:41:14.527Z,180.39
2023-04-30T07:42:13.538Z,181.09
2023-04-30T07:43:13.489Z,180.57
2023-04-30T07:44:13.491Z,182.11
2023-04-30T07:45:13.505Z,183.81
2023-04-30T07:46:13.547Z,182.88
2023-04-30T07:47:13.494Z,182.03
2023-04-30T07:48:13.448Z,183.36
2023-04-30T07:49:13.451Z,186.95
2023-04-30T07:50:13.433Z,187.33
2023-04-30T07:51:13.445Z,187.13
2023-04-30T07:52:13.488Z,188.73
2023-04-30T07:53:13.428Z,192.98
2023-04-30T07:54:13.406Z,190.58
2023-04-30T07:55:13.465Z,191.61
2023-04-30T07:56:13.449Z,190.40
2023-04-30T07:57:13.477Z,196.36
2023-04-30T07:58:13.461Z,195.13
2023-04-30T07:59:13.491Z,196.37
2023-04-30T08:00:13.546Z,197.98
2023-04-30T08:01:13.560Z,198.99
2023-04-30T08:02:13.726Z,202.29
2023-04-30T08:03:13.740Z,204.83
2023-04-30T08:04:13.703Z,204.77
2023-04-30T08:05:13.744Z,206.00
2023-04-30T08:06:13.825Z,213.62
2023-04-30T08:07:13.813Z,214.43
2023-04-30T08:08:13.834Z,216.55
2023-04-30T08:09:13.888Z,221.55
2023-04-30T08:10:13.927Z,217.97
2023-04-30T08:11:13.952Z,218.94
2023-04-30T08:12:14.017Z,227.26
2023-04-30T08:13:14.068Z,226.21
2023-04-30T08:14:14.121Z,221.50
2023-04-30T08:15:14.110Z,226.08
2023-04-30T08:16:14.141Z,225.70
2023-04-30T08:17:14.199Z,225.50
2023-04-30T08:18:14.271Z,229.58
2023-04-30T08:19:14.201Z,230.70
2023-04-30T08:20:14.239Z,230.40
2023-04-30T08:21:14.272Z,231.39
2023-04-30T08:22:14.338Z,226.88
2023-04-30T08:23:14.347Z,226.89
2023-04-30T08:24:14.367Z,229.27
2023-04-30T08:25:14.417Z,228.60
2023-04-30T08:26:14.439Z,226.88
2023-04-30T08:27:14.488Z,231.55
2023-04-30T08:28:14.521Z,232.55
2023-04-30T08:29:14.559Z,230.84
2023-04-30T08:30:14.594Z,229.94
2023-04-30T08:31:14.635Z,234.84
2023-04-30T08:32:14.805Z,231.01
2023-04-30T08:33:14.703Z,227.16
2023-04-30T08:34:14.727Z,227.42
2023-04-30T08:35:14.751Z,224.73
2023-04-30T08:36:14.809Z,222.41
2023-04-30T08:37:14.862Z,225.12
2023-04-30T08:38:14.894Z,224.82
2023-04-30T08:39:14.903Z,223.19
2023-04-30T08:40:14.959Z,223.41
2023-04-30T08:41:15.002Z,224.76
2023-04-30T08:42:15.036Z,227.61
2023-04-30T08:43:15.065Z,222.02
2023-04-30T08:44:15.113Z,224.75
2023-04-30T08:45:15.135Z,225.25
2023-04-30T08:46:15.236Z,227.96
2023-04-30T08:47:15.233Z,227.63
2023-04-30T08:48:15.314Z,230.68
2023-04-30T08:49:15.269Z,236.81
2023-04-30T08:50:15.294Z,234.93
2023-04-30T08:51:15.330Z,230.84
2023-04-30T08:52:15.356Z,232.20
2023-04-30T08:53:15.416Z,230.30
2023-04-30T08:54:15.433Z,226.95
2023-04-30T08:55:15.485Z,228.99
2023-04-30T08:56:15.514Z,220.87
2023-04-30T08:57:15.569Z,223.68
2023-04-30T08:58:15.578Z,226.18
2023-04-30T08:59:15.622Z,225.18
2023-04-30T09:00:15.644Z,233.48
2023-04-30T09:01:15.718Z,227.90
2023-04-30T09:02:15.710Z,229.97
2023-04-30T09:03:15.884Z,232.62
2023-04-30T09:04:15.834Z,229.22
2023-04-30T09:05:15.865Z,237.54
2023-04-30T09:06:15.885Z,239.81
2023-04-30T09:07:15.901Z,239.66
2023-04-30T09:08:15.937Z,240.25
2023-04-30T09:09:15.958Z,241.48
2023-04-30T09:10:16.019Z,245.43
2023-04-30T09:11:16.019Z,243.96
2023-04-30T09:12:18.640Z,243.65
2023-04-30T09:13:16.053Z,232.44
2023-04-30T09:14:16.039Z,230.39
2023-04-30T09:15:16.039Z,230.26
2023-04-30T09:16:16.117Z,225.93
2023-04-30T09:17:16.039Z,235.17
2023-04-30T09:18:16.277Z,239.98
2023-04-30T09:19:16.031Z,239.58
2023-04-30T09:20:16.016Z,236.50
2023-04-30T09:21:15.986Z,232.50
2023-04-30T09:22:15.999Z,225.67
2023-04-30T09:23:16.003Z,220.03
2023-04-30T09:24:16.729Z,221.71
2023-04-30T09:25:16.120Z,221.84
2023-04-30T09:26:16.186Z,216.81
2023-04-30T09:27:16.234Z,213.68
2023-04-30T09:28:16.229Z,209.96
2023-04-30T09:29:16.223Z,200.19
2023-04-30T09:30:16.277Z,199.51
2023-04-30T09:31:16.318Z,190.65
2023-04-30T09:32:16.305Z,187.95
2023-04-30T09:33:16.353Z,180.41
2023-04-30T09:34:16.386Z,179.63
2023-04-30T09:35:16.428Z,168.30
2023-04-30T09:36:16.496Z,162.63
2023-04-30T09:37:16.494Z,164.01
2023-04-30T09:38:16.557Z,163.36
2023-04-30T09:39:16.606Z,160.74
2023-04-30T09:40:16.690Z,163.00
2023-04-30T09:41:16.714Z,156.43
2023-04-30T09:42:16.754Z,154.24
2023-04-30T09:43:16.794Z,155.24
2023-04-30T09:44:16.809Z,153.16
2023-04-30T09:45:16.825Z,149.91
2023-04-30T09:46:16.855Z,148.24
2023-04-30T09:47:16.871Z,152.76
2023-04-30T09:48:17.956Z,154.02
2023-04-30T09:49:16.894Z,149.96
2023-04-30T09:50:16.948Z,154.42
2023-04-30T09:51:16.932Z,154.35
2023-04-30T09:52:16.984Z,148.07
2023-04-30T09:53:17.019Z,148.74
2023-04-30T09:54:17.023Z,149.46
2023-04-30T09:55:17.104Z,151.57
2023-04-30T09:56:17.146Z,155.66
2023-04-30T09:57:17.178Z,151.96
2023-04-30T09:58:17.210Z,149.67
2023-04-30T09:59:17.229Z,147.41
2023-04-30T10:00:17.265Z,150.47
2023-04-30T10:01:17.327Z,150.05
2023-04-30T10:02:17.362Z,145.29
2023-04-30T10:03:17.363Z,151.79
2023-04-30T10:04:17.491Z,150.72
2023-04-30T10:05:17.432Z,147.48
2023-04-30T10:06:17.554Z,150.13
2023-04-30T10:07:19.366Z,155.40
2023-04-30T10:08:17.523Z,158.50
2023-04-30T10:09:17.484Z,151.79
2023-04-30T10:10:17.503Z,155.64
2023-04-30T10:11:17.522Z,155.48
2023-04-30T10:12:17.463Z,153.97
2023-04-30T10:13:17.462Z,150.30
2023-04-30T10:14:17.470Z,150.57
2023-04-30T10:15:17.470Z,152.60
2023-04-30T10:16:17.470Z,151.10
2023-04-30T10:17:17.434Z,146.56
2023-04-30T10:18:17.425Z,146.00
2023-04-30T10:19:17.422Z,141.85
2023-04-30T10:20:17.416Z,142.10
2023-04-30T10:21:17.418Z,142.35
2023-04-30T10:22:17.398Z,143.98
2023-04-30T10:23:17.423Z,141.31
2023-04-30T10:24:17.388Z,140.65
2023-04-30T10:25:17.396Z,141.98
2023-04-30T10:26:17.386Z,136.20
2023-04-30T10:27:17.373Z,133.60
2023-04-30T10:28:17.371Z,132.46
2023-04-30T10:29:17.357Z,137.22
2023-04-30T10:30:17.340Z,141.35
2023-04-30T10:31:17.330Z,134.42
2023-04-30T10:32:17.465Z,135.95
2023-04-30T10:33:17.395Z,134.95
2023-04-30T10:34:17.296Z,133.38
2023-04-30T10:35:17.312Z,132.66
2023-04-30T10:36:17.301Z,130.56
2023-04-30T10:37:17.320Z,126.31
2023-04-30T10:38:17.289Z,127.49
2023-04-30T10:39:17.265Z,126.11
2023-04-30T10:40:17.255Z,125.45
2023-04-30T10:41:17.383Z,121.97
2023-04-30T10:42:17.279Z,122.37
2023-04-30T10:43:17.242Z,121.76
2023-04-30T10:44:17.219Z,119.98
2023-04-30T10:45:17.324Z,119.29
2023-04-30T10:46:17.227Z,124.94
2023-04-30T10:47:17.213Z,121.32
2023-04-30T10:48:17.217Z,120.09
2023-04-30T10:49:17.201Z,121.54
2023-04-30T10:50:17.197Z,113.04
2023-04-30T10:51:17.199Z,118.15
2023-04-30T10:52:17.190Z,117.47
2023-04-30T10:53:17.176Z,113.20
2023-04-30T10:54:17.165Z,113.26
2023-04-30T10:55:17.197Z,108.05
2023-04-30T10:56:17.155Z,108.79
2023-04-30T10:57:17.148Z,106.86
2023-04-30T10:58:17.131Z,107.48
2023-04-30T10:59:17.130Z,107.48
2023-04-30T11:00:17.122Z,106.44
2023-04-30T11:01:17.158Z,106.73
2023-04-30T11:02:17.106Z,109.34
2023-04-30T11:03:17.095Z,109.05
2023-04-30T11:04:17.117Z,107.97
2023-04-30T11:05:17.256Z,99.73
2023-04-30T11:06:17.123Z,95.54
2023-04-30T11:07:17.155Z,93.66
2023-04-30T11:08:17.197Z,98.31
2023-04-30T11:09:17.241Z,91.70
2023-04-30T11:10:17.304Z,92.83
2023-04-30T11:11:17.306Z,98.57
2023-04-30T11:12:17.315Z,98.57
2023-04-30T11:13:17.343Z,92.03
2023-04-30T11:14:17.348Z,83.67
2023-04-30T11:15:17.417Z,86.77
2023-04-30T11:16:17.450Z,92.86
2023-04-30T11:17:17.442Z,94.08
2023-04-30T11:18:17.445Z,94.71
2023-04-30T11:19:17.443Z,92.04
2023-04-30T11:20:17.437Z,91.78
2023-04-30T11:21:17.455Z,82.97
2023-04-30T11:22:17.495Z,84.41
2023-04-30T11:23:25.194Z,77.80
2023-04-30T11:24:18.526Z,78.02
2023-04-30T11:25:17.497Z,78.12
2023-04-30T11:26:17.486Z,78.58
2023-04-30T11:27:17.523Z,83.38
2023-04-30T11:28:17.478Z,90.59
2023-04-30T11:29:17.526Z,94.04
2023-04-30T11:30:17.454Z,88.57
2023-04-30T11:31:17.553Z,87.64
2023-04-30T11:32:17.445Z,85.64
2023-04-30T11:33:17.450Z,87.10
2023-04-30T11:34:17.427Z,86.81
2023-04-30T11:35:17.428Z,79.53
2023-04-30T11:36:17.427Z,76.45
2023-04-30T11:37:17.445Z,74.14
2023-04-30T11:38:17.442Z,73.22
2023-04-30T11:39:17.472Z,72.58
2023-04-30T11:40:17.473Z,67.42
2023-04-30T11:41:17.496Z,70.89
2023-04-30T11:42:17.507Z,72.43
2023-04-30T11:43:17.533Z,71.01
2023-04-30T11:44:17.552Z,68.76
2023-04-30T11:45:17.861Z,67.19
2023-04-30T11:46:17.666Z,70.07
2023-04-30T11:47:17.636Z,74.15
2023-04-30T11:48:17.671Z,68.03
2023-04-30T11:49:17.679Z,58.85
2023-04-30T11:50:17.705Z,60.15
2023-04-30T11:51:17.717Z,56.46
2023-04-30T11:52:17.737Z,57.32
2023-04-30T11:53:17.732Z,58.43
2023-04-30T11:54:17.756Z,56.47
2023-04-30T11:55:17.795Z,60.32
2023-04-30T11:56:17.828Z,59.14
2023-04-30T11:57:17.854Z,60.08
2023-04-30T11:58:17.936Z,58.81
2023-04-30T11:59:17.965Z,52.15
2023-04-30T12:00:18.016Z,52.96
2023-04-30T12:01:18.023Z,55.48
2023-04-30T12:02:18.053Z,56.34
2023-04-30T12:03:18.177Z,58.55
2023-04-30T12:04:18.122Z,62.81
2023-04-30T12:05:18.141Z,57.99
2023-04-30T12:06:18.203Z,45.80
2023-04-30T12:07:18.243Z,49.87
2023-04-30T12:08:18.337Z,53.43
2023-04-30T12:09:18.289Z,58.41
2023-04-30T12:10:18.321Z,58.24
2023-04-30T12:11:18.366Z,60.72
2023-04-30T12:12:18.389Z,63.09
2023-04-30T12:13:18.400Z,60.28
2023-04-30T12:14:18.411Z,48.48
2023-04-30T12:15:18.425Z,46.42
2023-04-30T12:16:18.492Z,51.40
2023-04-30T12:17:18.468Z,45.54
2023-04-30T12:18:18.514Z,40.37
2023-04-30T12:19:18.539Z,44.58
2023-04-30T12:20:18.577Z,41.84
2023-04-30T12:21:18.608Z,40.13
2023-04-30T12:22:18.654Z,45.31
2023-04-30T12:23:18.680Z,51.48
2023-04-30T12:24:18.716Z,48.57
2023-04-30T12:25:18.744Z,46.74
2023-04-30T12:26:18.761Z,38.62
2023-04-30T12:27:18.791Z,41.41
2023-04-30T12:28:18.841Z,48.56
2023-04-30T12:29:18.940Z,53.33
2023-04-30T12:30:18.931Z,48.98
2023-04-30T12:31:18.953Z,51.90
2023-04-30T12:32:19.040Z,47.98
2023-04-30T12:33:19.042Z,44.17